Time;durP1;ratioP1;P1;durP2;ratioP2;P2;SDS_P1;SDS_P2;PMS_P1;PMS_P2;Temp;Humidity;BMP_temperature;BMP_pressure;BME280_temperature;BME280_humidity;BME280_pressure;Samples;Min_cycle;Max_cycle;Signal;HPM_P1;HPM_P2
2022/11/10 00:01:04;;;;;;;8.20;2.92;;;11.50;99.90;;;;;;5033564;28;20095;-77
2022/11/10 00:03:30;;;;;;;12.35;3.00;;;11.50;99.90;;;;;;5022512;28;20116;-77
2022/11/10 00:05:55;;;;;;;19.75;2.88;;;11.50;99.90;;;;;;5031669;28;21692;-74
2022/11/10 00:08:21;;;;;;;8.55;2.65;;;11.50;99.90;;;;;;5031369;28;20030;-77
2022/11/10 00:11:00;;;;;;;13.68;2.47;;;11.50;99.90;;;;;;5031728;28;20021;-76
2022/11/10 00:13:34;;;;;;;10.32;2.30;;;11.50;99.90;;;;;;5031351;28;20030;-74
2022/11/10 00:18:45;;;;;;;11.60;2.33;;;11.50;99.90;;;;;;5033930;28;20468;-73
2022/11/10 00:21:12;;;;;;;11.82;2.75;;;11.40;99.90;;;;;;5032191;28;20029;-74
2022/11/10 00:23:38;;;;;;;8.50;2.58;;;11.40;99.90;;;;;;5033562;28;20036;-72
2022/11/10 00:26:13;;;;;;;12.32;3.10;;;11.40;99.90;;;;;;5033751;28;20025;-74
2022/11/10 00:28:41;;;;;;;15.10;3.50;;;11.50;99.90;;;;;;5023349;28;20032;-73
2022/11/10 00:31:07;;;;;;;13.48;2.85;;;11.40;99.90;;;;;;5026936;28;20021;-76
2022/11/10 00:33:36;;;;;;;19.73;2.45;;;11.50;99.90;;;;;;5031054;28;20596;-77
2022/11/10 00:36:02;;;;;;;13.00;3.08;;;11.50;99.90;;;;;;5032390;28;20443;-72
2022/11/10 00:38:28;;;;;;;11.93;3.33;;;11.50;99.90;;;;;;5024748;28;20029;-73
2022/11/10 00:40:54;;;;;;;12.27;2.88;;;11.40;99.90;;;;;;5031303;28;20026;-74
2022/11/10 00:43:19;;;;;;;20.00;3.20;;;11.50;99.90;;;;;;5033250;28;20041;-76
2022/11/10 00:45:46;;;;;;;16.60;2.85;;;11.40;99.90;;;;;;5031742;28;20038;-74
2022/11/10 00:48:14;;;;;;;10.98;2.58;;;11.40;99.90;;;;;;5032098;28;20048;-76
2022/11/10 00:50:40;;;;;;;11.60;2.42;;;11.40;99.90;;;;;;5033032;28;20028;-77
2022/11/10 00:53:06;;;;;;;14.80;2.50;;;11.40;99.90;;;;;;5032545;28;20033;-74
2022/11/10 00:55:35;;;;;;;14.10;2.88;;;11.40;99.90;;;;;;5030261;28;20053;-73
2022/11/10 00:58:01;;;;;;;14.98;2.83;;;11.40;99.90;;;;;;5031254;28;20048;-74
2022/11/10 01:00:29;;;;;;;6.90;2.80;;;11.40;99.90;;;;;;5032076;28;20371;-74
2022/11/10 01:02:55;;;;;;;19.00;2.60;;;11.40;99.90;;;;;;5031860;28;20110;-75
2022/11/10 01:05:23;;;;;;;7.22;2.10;;;11.40;99.90;;;;;;5032477;28;20033;-76
2022/11/10 01:07:48;;;;;;;16.33;2.80;;;11.30;99.90;;;;;;5031878;28;20026;-75
2022/11/10 01:10:14;;;;;;;19.33;3.38;;;11.30;99.90;;;;;;5030681;28;20028;-74
2022/11/10 01:12:43;;;;;;;19.60;2.90;;;11.40;99.90;;;;;;5032268;28;20017;-75
2022/11/10 01:15:11;;;;;;;14.15;2.88;;;11.40;99.90;;;;;;5027954;28;20021;-76
2022/11/10 01:17:37;;;;;;;16.95;2.72;;;11.40;99.90;;;;;;5030032;28;20025;-73
2022/11/10 01:20:02;;;;;;;16.90;3.47;;;11.40;99.90;;;;;;5029726;28;20021;-75
2022/11/10 01:22:29;;;;;;;14.45;2.72;;;11.30;99.90;;;;;;5030604;28;20048;-76
2022/11/10 01:24:57;;;;;;;13.40;2.50;;;11.30;99.90;;;;;;5030159;28;20113;-74
2022/11/10 01:27:23;;;;;;;15.40;3.17;;;11.20;99.90;;;;;;5030644;28;20029;-74
2022/11/10 01:29:48;;;;;;;11.10;2.60;;;11.30;99.90;;;;;;5027093;28;20025;-75
2022/11/10 01:32:14;;;;;;;14.48;2.70;;;11.30;99.90;;;;;;5032056;28;20025;-75
2022/11/10 01:34:42;;;;;;;15.73;2.80;;;11.30;99.90;;;;;;5032035;28;20029;-75
2022/11/10 01:37:10;;;;;;;7.78;2.65;;;11.30;99.90;;;;;;5029988;28;20678;-75
2022/11/10 01:39:35;;;;;;;17.40;2.97;;;11.40;99.90;;;;;;5031006;28;20092;-76
2022/11/10 01:42:03;;;;;;;5.55;2.40;;;11.30;99.90;;;;;;5028975;28;20033;-73
2022/11/10 01:44:29;;;;;;;16.48;2.53;;;11.30;99.90;;;;;;5031585;28;20048;-75
2022/11/10 01:46:55;;;;;;;17.33;3.17;;;11.30;99.90;;;;;;5027317;28;20042;-74
2022/11/10 01:49:24;;;;;;;9.93;2.00;;;11.30;99.90;;;;;;5030729;28;20053;-73
2022/11/10 01:52:01;;;;;;;15.30;2.55;;;11.30;99.90;;;;;;5029419;28;20108;-75
2022/11/10 01:54:35;;;;;;;12.32;2.70;;;11.30;99.90;;;;;;5031426;28;20083;-74
2022/11/10 01:57:05;;;;;;;14.77;3.03;;;11.40;99.90;;;;;;5031590;28;20109;-76
2022/11/10 01:59:38;;;;;;;15.63;2.70;;;11.30;99.90;;;;;;5026101;28;20083;-74
2022/11/10 02:02:17;;;;;;;16.77;3.05;;;11.40;99.90;;;;;;5029799;28;20347;-73
2022/11/10 02:04:45;;;;;;;11.82;2.83;;;11.30;99.90;;;;;;5026312;28;20060;-72
2022/11/10 02:07:11;;;;;;;10.65;2.30;;;11.30;99.90;;;;;;5030754;28;20643;-73
2022/11/10 02:09:37;;;;;;;12.50;2.63;;;11.30;99.90;;;;;;5030417;28;20115;-74
2022/11/10 02:12:05;;;;;;;18.15;3.15;;;11.30;99.90;;;;;;5029608;28;20458;-73
2022/11/10 02:14:31;;;;;;;10.70;2.10;;;11.30;99.90;;;;;;5027449;28;20340;-74
2022/11/10 02:16:57;;;;;;;16.13;2.65;;;11.30;99.90;;;;;;5030577;28;20075;-75
2022/11/10 02:19:25;;;;;;;10.88;2.22;;;11.20;99.90;;;;;;5030858;28;20030;-72
2022/11/10 02:21:50;;;;;;;12.07;2.60;;;11.20;99.90;;;;;;5021208;28;20540;-73
2022/11/10 02:24:16;;;;;;;23.38;2.80;;;11.20;99.90;;;;;;5029589;28;20025;-76
2022/11/10 02:27:02;;;;;;;10.20;2.75;;;11.30;99.90;;;;;;5030375;28;20344;-74
2022/11/10 02:29:28;;;;;;;14.55;2.30;;;11.20;99.90;;;;;;5043279;28;20065;-74
2022/11/10 02:31:56;;;;;;;12.82;2.28;;;11.20;99.90;;;;;;5029691;28;20018;-73
2022/11/10 02:34:22;;;;;;;18.00;3.00;;;11.20;99.90;;;;;;5031740;28;20112;-74
2022/11/10 02:36:49;;;;;;;11.02;2.60;;;11.20;99.90;;;;;;5028394;28;20409;-78
2022/11/10 02:39:15;;;;;;;15.57;2.65;;;11.20;99.90;;;;;;5029057;28;20043;-76
2022/11/10 02:41:45;;;;;;;11.80;1.90;;;11.20;99.90;;;;;;5030886;28;20405;-75
2022/11/10 02:44:14;;;;;;;14.32;2.80;;;11.20;99.90;;;;;;5031424;28;20526;-77
2022/11/10 02:46:39;;;;;;;8.32;2.72;;;11.20;99.90;;;;;;5034497;28;20316;-77
2022/11/10 02:49:06;;;;;;;14.05;2.85;;;11.20;99.90;;;;;;5035747;28;20026;-76
2022/11/10 02:51:32;;;;;;;11.75;2.42;;;11.20;99.90;;;;;;5035433;28;20025;-75
2022/11/10 02:53:58;;;;;;;13.85;3.75;;;11.20;99.90;;;;;;5032005;28;20029;-75
2022/11/10 02:56:28;;;;;;;11.57;2.63;;;11.20;99.90;;;;;;5030004;28;20038;-73
2022/11/10 02:58:54;;;;;;;15.65;2.92;;;11.10;99.90;;;;;;5035505;28;20029;-75
2022/11/10 03:01:19;;;;;;;10.90;2.28;;;11.10;99.90;;;;;;5029895;28;20029;-78
2022/11/10 03:03:47;;;;;;;14.10;2.80;;;11.10;99.90;;;;;;5030538;28;20928;-77
2022/11/10 03:06:13;;;;;;;16.63;3.47;;;11.20;99.90;;;;;;5029843;28;20029;-74
2022/11/10 03:08:38;;;;;;;19.33;2.63;;;11.10;99.90;;;;;;5030797;28;20041;-76
2022/11/10 03:11:05;;;;;;;19.90;2.88;;;11.20;99.90;;;;;;5030234;28;20087;-75
2022/11/10 03:13:31;;;;;;;17.30;2.70;;;11.20;99.90;;;;;;5028781;28;20087;-73
2022/11/10 03:15:56;;;;;;;17.13;2.50;;;11.10;99.90;;;;;;5031440;28;20027;-72
2022/11/10 03:18:22;;;;;;;7.78;2.10;;;11.20;99.90;;;;;;5030912;28;20030;-75
2022/11/10 03:20:48;;;;;;;14.57;2.47;;;11.10;99.90;;;;;;5030160;28;20057;-75
2022/11/10 03:23:18;;;;;;;10.80;2.47;;;11.20;99.90;;;;;;5028892;28;20029;-74
2022/11/10 03:25:44;;;;;;;10.70;2.60;;;11.20;99.90;;;;;;5029171;28;20099;-74
2022/11/10 03:28:11;;;;;;;15.50;2.60;;;11.20;99.90;;;;;;5016602;28;20018;-73
2022/11/10 03:30:37;;;;;;;13.52;2.30;;;11.20;99.90;;;;;;5044186;28;20021;-73
2022/11/10 03:33:03;;;;;;;9.30;2.55;;;11.20;99.90;;;;;;5030467;28;20030;-73
2022/11/10 03:35:28;;;;;;;16.33;2.47;;;11.10;99.90;;;;;;5032472;28;20117;-75
2022/11/10 03:37:56;;;;;;;15.95;2.63;;;11.10;99.90;;;;;;5028108;28;20104;-74
2022/11/10 03:40:22;;;;;;;17.75;2.85;;;11.10;99.90;;;;;;5028645;28;20118;-73
2022/11/10 03:42:48;;;;;;;18.33;2.65;;;11.10;99.90;;;;;;5034169;28;20065;-76
2022/11/10 03:45:16;;;;;;;13.63;2.60;;;11.10;99.90;;;;;;5033242;28;20033;-73
2022/11/10 03:47:45;;;;;;;18.25;1.98;;;11.10;99.90;;;;;;5032836;28;20450;-74
2022/11/10 03:50:11;;;;;;;15.82;2.22;;;11.10;99.90;;;;;;5032885;28;20065;-77
2022/11/10 03:52:42;;;;;;;17.50;2.83;;;11.10;99.90;;;;;;5033516;28;20055;-73
2022/11/10 03:55:10;;;;;;;11.20;2.50;;;11.00;99.90;;;;;;5033334;28;20098;-75
2022/11/10 03:57:36;;;;;;;12.70;2.63;;;11.00;99.90;;;;;;5032976;28;20060;-77
2022/11/10 04:00:03;;;;;;;9.60;1.73;;;11.10;99.90;;;;;;5033808;28;20061;-77
2022/11/10 04:02:29;;;;;;;17.10;2.50;;;11.00;99.90;;;;;;5031312;28;20474;-75
2022/11/10 04:10:25;;;;;;;11.98;1.95;;;11.00;99.90;;;;;;5031269;28;20164;-75
2022/11/10 04:15:43;;;;;;;18.83;2.90;;;11.00;99.90;;;;;;5032242;28;20526;-77
2022/11/10 04:18:19;;;;;;;10.15;2.00;;;10.90;99.90;;;;;;5033585;28;20030;-75
2022/11/10 04:20:47;;;;;;;14.90;2.72;;;10.90;99.90;;;;;;5033032;28;20026;-75
2022/11/10 04:23:26;;;;;;;16.38;2.35;;;10.90;99.90;;;;;;5033260;28;20040;-75
2022/11/10 04:28:42;;;;;;;11.57;2.60;;;10.90;99.90;;;;;;5030566;28;20056;-74
2022/11/10 04:31:10;;;;;;;21.30;2.22;;;10.80;99.90;;;;;;5032333;28;20028;-75
2022/11/10 04:33:40;;;;;;;28.77;3.05;;;10.80;99.90;;;;;;5030738;28;20056;-74
2022/11/10 04:36:06;;;;;;;12.07;2.65;;;10.80;99.90;;;;;;5030822;28;20095;-74
2022/11/10 04:38:34;;;;;;;16.88;2.33;;;10.80;99.90;;;;;;5031485;28;20096;-75
2022/11/10 04:40:59;;;;;;;19.40;2.92;;;10.80;99.90;;;;;;5031298;28;20033;-75
2022/11/10 04:43:26;;;;;;;20.67;2.80;;;10.80;99.90;;;;;;5032904;28;20047;-75
2022/11/10 04:45:54;;;;;;;15.38;2.22;;;10.80;99.90;;;;;;5032444;28;20040;-75
2022/11/10 04:48:20;;;;;;;17.33;2.40;;;10.80;99.90;;;;;;5031463;28;20017;-74
2022/11/10 04:50:45;;;;;;;14.23;2.50;;;10.70;99.90;;;;;;5027959;28;20049;-74
2022/11/10 04:53:11;;;;;;;14.52;3.38;;;10.70;99.90;;;;;;5031695;28;20021;-75
2022/11/10 04:55:41;;;;;;;14.98;2.42;;;10.80;99.90;;;;;;5031192;28;20079;-73
2022/11/10 04:58:10;;;;;;;14.55;2.33;;;10.70;99.90;;;;;;5031738;28;20466;-78
2022/11/10 05:00:38;;;;;;;11.68;2.22;;;10.80;99.90;;;;;;5030969;28;20033;-75
2022/11/10 05:03:07;;;;;;;11.80;2.42;;;10.80;99.90;;;;;;5031957;28;20083;-75
2022/11/10 05:05:35;;;;;;;15.55;2.78;;;10.70;99.90;;;;;;5031409;28;20483;-75
2022/11/10 05:08:03;;;;;;;18.30;2.55;;;10.70;99.90;;;;;;5031631;28;20727;-73
2022/11/10 05:10:29;;;;;;;9.38;2.22;;;10.70;99.90;;;;;;5031875;28;20345;-73
2022/11/10 05:12:58;;;;;;;16.98;2.50;;;10.70;99.90;;;;;;5031053;28;20021;-75
2022/11/10 05:15:24;;;;;;;13.10;2.90;;;10.70;99.90;;;;;;5030251;28;20108;-75
2022/11/10 05:17:53;;;;;;;15.85;2.22;;;10.70;99.90;;;;;;5031509;28;20048;-73
2022/11/10 05:20:23;;;;;;;8.60;2.38;;;10.70;99.90;;;;;;5028919;28;20312;-75
2022/11/10 05:25:39;;;;;;;16.63;2.40;;;10.70;99.90;;;;;;5031279;28;20375;-74
2022/11/10 05:28:07;;;;;;;14.25;2.92;;;10.70;99.90;;;;;;5023579;28;20032;-73
2022/11/10 05:30:34;;;;;;;11.73;2.17;;;10.70;99.90;;;;;;5031732;28;20021;-74
2022/11/10 05:33:01;;;;;;;20.85;3.13;;;10.70;99.90;;;;;;5029463;28;20079;-77
2022/11/10 05:35:27;;;;;;;11.10;2.40;;;10.70;99.90;;;;;;5031706;28;20108;-74
2022/11/10 05:37:55;;;;;;;12.15;2.65;;;10.70;99.90;;;;;;5030783;28;20101;-76
2022/11/10 05:40:21;;;;;;;18.42;2.45;;;10.70;99.90;;;;;;5033619;28;20063;-77
2022/11/10 05:42:51;;;;;;;16.13;2.85;;;10.70;99.90;;;;;;5031387;28;20045;-75
2022/11/10 05:45:19;;;;;;;14.88;2.25;;;10.70;99.90;;;;;;5032498;28;20076;-77
2022/11/10 05:47:47;;;;;;;25.17;3.58;;;10.70;99.90;;;;;;5031232;28;20083;-76
2022/11/10 05:50:16;;;;;;;9.93;2.38;;;10.70;99.90;;;;;;5031507;28;20518;-77
2022/11/10 05:52:47;;;;;;;13.48;2.63;;;10.70;99.90;;;;;;5031463;28;20441;-74
2022/11/10 05:55:13;;;;;;;18.25;3.10;;;10.70;99.90;;;;;;5031028;28;20451;-74
2022/11/10 05:57:42;;;;;;;12.25;3.03;;;10.70;99.90;;;;;;5031457;28;20044;-75
2022/11/10 06:00:09;;;;;;;17.40;2.25;;;10.70;99.90;;;;;;5030967;28;20022;-74
2022/11/10 06:02:35;;;;;;;13.32;2.80;;;10.60;99.90;;;;;;5030541;28;20608;-74
2022/11/10 06:05:02;;;;;;;18.95;2.55;;;10.60;99.90;;;;;;5030083;28;20137;-74
2022/11/10 06:07:28;;;;;;;15.82;2.25;;;10.60;99.90;;;;;;5029186;28;20482;-74
2022/11/10 06:09:56;;;;;;;18.20;2.67;;;10.50;99.90;;;;;;5030417;28;20029;-76
2022/11/10 06:12:23;;;;;;;11.10;2.85;;;10.50;99.90;;;;;;5030322;28;20029;-74
2022/11/10 06:14:52;;;;;;;14.40;2.90;;;10.50;99.90;;;;;;5030236;28;20030;-74
2022/11/10 06:17:18;;;;;;;14.30;2.92;;;10.50;99.90;;;;;;5030667;28;20025;-76
2022/11/10 06:19:43;;;;;;;17.42;2.95;;;10.50;99.90;;;;;;5029958;28;20082;-76
2022/11/10 06:22:09;;;;;;;16.42;2.97;;;10.50;99.90;;;;;;5029061;28;20421;-75
2022/11/10 06:24:37;;;;;;;21.95;3.47;;;10.40;99.90;;;;;;5029549;28;20037;-77
2022/11/10 06:27:03;;;;;;;16.33;2.33;;;10.50;99.90;;;;;;5028497;28;20025;-74
2022/11/10 06:29:28;;;;;;;14.93;2.47;;;10.40;99.90;;;;;;5029254;28;20026;-76
2022/11/10 06:31:54;;;;;;;10.27;2.13;;;10.50;99.90;;;;;;5029166;28;20032;-75
2022/11/10 06:34:20;;;;;;;11.32;2.50;;;10.40;99.90;;;;;;5029441;28;20022;-76
2022/11/10 06:36:45;;;;;;;10.55;2.55;;;10.40;99.90;;;;;;5030728;28;20033;-74
2022/11/10 06:39:11;;;;;;;14.55;2.65;;;10.30;99.90;;;;;;5030368;28;20029;-75
2022/11/10 06:41:39;;;;;;;17.38;2.60;;;10.40;99.90;;;;;;5028397;28;20114;-74
2022/11/10 06:44:10;;;;;;;21.38;2.80;;;10.30;99.90;;;;;;5029228;28;20029;-76
2022/11/10 06:46:36;;;;;;;14.02;2.55;;;10.30;99.90;;;;;;5028172;28;20021;-76
2022/11/10 06:49:02;;;;;;;13.98;2.50;;;10.40;99.90;;;;;;5027840;28;20040;-77
2022/11/10 06:51:31;;;;;;;7.38;2.17;;;10.40;99.90;;;;;;5030078;28;20022;-74
2022/11/10 06:53:59;;;;;;;10.77;2.17;;;10.40;99.90;;;;;;5025670;28;20021;-75
2022/11/10 06:56:29;;;;;;;16.75;2.83;;;10.30;99.90;;;;;;5030164;28;20513;-76
2022/11/10 06:58:57;;;;;;;22.13;3.17;;;10.30;99.90;;;;;;5030144;28;20040;-76
2022/11/10 07:01:25;;;;;;;14.90;2.55;;;10.30;99.90;;;;;;5029668;28;20176;-74
2022/11/10 07:03:52;;;;;;;12.02;2.47;;;10.30;99.90;;;;;;5029783;28;20439;-76
2022/11/10 07:06:23;;;;;;;14.90;2.55;;;10.40;99.90;;;;;;5027419;28;20033;-76
2022/11/10 07:08:49;;;;;;;12.95;2.35;;;10.40;99.90;;;;;;5030153;28;20029;-74
2022/11/10 07:11:15;;;;;;;20.70;2.75;;;10.40;99.90;;;;;;5027023;28;20032;-73
2022/11/10 07:13:44;;;;;;;20.30;2.20;;;10.50;99.90;;;;;;5029374;28;20394;-78
2022/11/10 07:16:10;;;;;;;22.65;2.70;;;10.50;99.90;;;;;;5029540;28;20041;-73
2022/11/10 07:18:36;;;;;;;8.00;2.25;;;10.50;99.90;;;;;;5031371;28;20029;-74
2022/11/10 07:21:03;;;;;;;17.70;2.80;;;10.50;99.90;;;;;;5034234;28;20029;-77
2022/11/10 07:23:29;;;;;;;14.68;2.80;;;10.50;99.90;;;;;;5033299;28;20030;-75
2022/11/10 07:25:57;;;;;;;14.30;2.40;;;10.50;99.90;;;;;;5033379;28;20029;-74
2022/11/10 07:28:23;;;;;;;13.25;2.40;;;10.50;99.90;;;;;;5031212;28;20025;-73
2022/11/10 07:30:51;;;;;;;10.73;2.30;;;10.60;99.90;;;;;;5032504;28;20442;-75
2022/11/10 07:33:16;;;;;;;14.48;2.95;;;10.60;99.90;;;;;;5033506;28;20096;-74
2022/11/10 07:35:42;;;;;;;15.60;2.63;;;10.60;99.90;;;;;;5033069;28;20120;-74
2022/11/10 07:38:13;;;;;;;19.38;2.47;;;10.60;99.90;;;;;;5031542;28;20029;-74
2022/11/10 07:40:39;;;;;;;16.02;2.10;;;10.70;99.90;;;;;;5030190;28;20696;-76
2022/11/10 07:43:05;;;;;;;11.27;2.65;;;10.70;99.90;;;;;;5031422;28;20065;-75
2022/11/10 07:45:31;;;;;;;19.48;2.35;;;10.70;99.90;;;;;;5031814;28;20055;-72
2022/11/10 07:48:06;;;;;;;16.55;2.25;;;10.80;99.90;;;;;;5032160;28;20025;-78
2022/11/10 07:50:34;;;;;;;12.85;2.58;;;10.80;99.90;;;;;;5031345;28;20640;-74
2022/11/10 07:53:11;;;;;;;16.25;3.05;;;10.90;99.90;;;;;;5033145;28;20029;-72
2022/11/10 07:55:38;;;;;;;15.88;2.80;;;10.90;99.90;;;;;;5031714;28;20557;-70
2022/11/10 07:58:05;;;;;;;11.77;2.58;;;10.80;99.90;;;;;;5033402;28;20033;-77
2022/11/10 08:00:31;;;;;;;12.88;2.35;;;10.90;99.90;;;;;;5032023;28;20051;-74
2022/11/10 08:03:02;;;;;;;14.10;2.20;;;11.00;99.90;;;;;;5032338;28;20118;-74
2022/11/10 08:05:31;;;;;;;9.30;2.17;;;11.10;99.90;;;;;;5031521;28;20350;-79
2022/11/10 08:07:56;;;;;;;10.95;2.28;;;11.20;99.90;;;;;;5032762;28;20415;-73
2022/11/10 08:10:22;;;;;;;21.05;3.35;;;11.20;99.90;;;;;;5030628;28;20021;-77
2022/11/10 08:12:55;;;;;;;18.05;2.70;;;11.30;99.90;;;;;;5029795;28;20032;-71
2022/11/10 08:15:24;;;;;;;15.02;2.83;;;11.30;99.90;;;;;;5032833;28;20128;-76
2022/11/10 08:17:51;;;;;;;17.77;2.45;;;11.40;99.90;;;;;;5032766;28;20029;-72
2022/11/10 08:20:17;;;;;;;21.80;2.53;;;11.30;99.90;;;;;;5030833;28;20027;-75
2022/11/10 08:22:43;;;;;;;12.32;2.35;;;11.40;99.90;;;;;;5033514;28;20459;-73
2022/11/10 08:25:09;;;;;;;14.70;2.90;;;11.50;99.90;;;;;;5030736;28;20048;-73
2022/11/10 08:27:37;;;;;;;14.43;2.70;;;11.50;99.90;;;;;;5029500;28;20494;-72
2022/11/10 08:30:03;;;;;;;12.07;1.98;;;11.70;99.90;;;;;;5029740;28;20030;-73
2022/11/10 08:32:28;;;;;;;9.25;2.28;;;11.70;99.90;;;;;;5033006;28;20508;-75
2022/11/10 08:34:56;;;;;;;8.25;2.00;;;11.70;99.90;;;;;;5031430;28;20060;-78
2022/11/10 08:37:23;;;;;;;13.32;2.60;;;11.80;99.90;;;;;;5032661;28;20592;-77
2022/11/10 08:39:48;;;;;;;12.65;2.50;;;11.90;99.90;;;;;;5031967;28;20079;-73
2022/11/10 08:42:14;;;;;;;17.73;2.65;;;11.90;99.90;;;;;;5031454;28;20033;-71
2022/11/10 08:44:39;;;;;;;16.45;2.85;;;12.00;99.90;;;;;;5031489;28;20025;-75
2022/11/10 08:47:08;;;;;;;15.48;2.55;;;12.10;99.90;;;;;;5032181;28;20025;-75
2022/11/10 08:49:33;;;;;;;12.40;2.50;;;12.20;99.90;;;;;;5030965;28;20628;-77
2022/11/10 08:52:01;;;;;;;11.15;2.03;;;12.20;99.90;;;;;;5030525;28;20028;-74
2022/11/10 08:54:27;;;;;;;17.00;2.10;;;12.20;99.90;;;;;;5032001;28;20127;-78
2022/11/10 08:56:53;;;;;;;21.98;2.92;;;12.30;99.90;;;;;;5031482;28;20033;-72
2022/11/10 08:59:18;;;;;;;18.42;2.50;;;12.30;99.90;;;;;;5032042;28;20128;-73
2022/11/10 09:01:46;;;;;;;16.77;2.65;;;12.40;99.90;;;;;;5032063;28;20053;-76
2022/11/10 09:04:14;;;;;;;16.42;1.85;;;12.40;99.90;;;;;;5032785;28;20103;-73
2022/11/10 09:06:40;;;;;;;18.67;2.30;;;12.50;99.90;;;;;;5032792;28;20145;-75
2022/11/10 09:09:08;;;;;;;17.75;3.22;;;12.60;99.90;;;;;;5031844;28;20495;-75
2022/11/10 09:11:33;;;;;;;21.83;3.03;;;12.60;99.90;;;;;;5032380;28;20044;-73
2022/11/10 09:13:59;;;;;;;19.20;4.18;;;12.80;99.90;;;;;;5032442;28;20021;-71
2022/11/10 09:16:24;;;;;;;18.23;1.80;;;12.80;99.90;;;;;;5028314;28;20117;-73
2022/11/10 09:18:50;;;;;;;22.13;2.67;;;12.90;99.90;;;;;;5031029;28;20064;-77
2022/11/10 09:21:18;;;;;;;13.25;2.30;;;12.90;99.90;;;;;;5031574;28;20037;-78
2022/11/10 09:23:44;;;;;;;18.73;2.47;;;13.00;99.90;;;;;;5031340;28;20091;-74
2022/11/10 09:26:09;;;;;;;22.92;2.42;;;13.00;99.90;;;;;;5033680;28;20022;-75
2022/11/10 09:28:40;;;;;;;16.48;2.67;;;13.10;99.90;;;;;;5030966;28;20036;-80
2022/11/10 09:31:05;;;;;;;13.80;2.00;;;13.20;99.90;;;;;;5030049;28;20064;-74
2022/11/10 09:33:31;;;;;;;12.43;2.55;;;13.20;99.90;;;;;;5030885;28;20077;-77
2022/11/10 09:35:58;;;;;;;22.88;2.65;;;13.30;99.90;;;;;;5030017;28;20025;-75
2022/11/10 09:38:24;;;;;;;20.45;2.72;;;13.40;99.90;;;;;;5027330;28;20413;-76
2022/11/10 09:41:10;;;;;;;18.27;2.70;;;13.50;99.90;;;;;;5031411;28;20029;-73
2022/11/10 09:44:04;;;;;;;25.48;3.08;;;13.60;99.90;;;;;;5029376;28;20124;-77
2022/11/10 09:46:36;;;;;;;14.25;2.85;;;13.70;99.90;;;;;;5028602;28;20033;-76
2022/11/10 09:49:28;;;;;;;14.30;2.22;;;13.90;99.90;;;;;;5028943;28;20433;-75
2022/11/10 09:51:56;;;;;;;17.10;2.53;;;14.00;99.90;;;;;;5030100;28;20032;-71
2022/11/10 09:54:42;;;;;;;20.50;3.17;;;14.00;99.90;;;;;;5031142;28;20029;-76
2022/11/10 09:57:14;;;;;;;17.20;2.22;;;14.20;99.90;;;;;;5029872;28;20492;-72
2022/11/10 09:59:42;;;;;;;14.43;2.50;;;14.20;99.90;;;;;;5050731;28;20039;-76
2022/11/10 10:02:11;;;;;;;16.67;2.60;;;14.40;99.90;;;;;;5030922;28;20033;-75
2022/11/10 10:04:45;;;;;;;14.23;2.58;;;14.60;99.90;;;;;;5029033;28;20030;-75
2022/11/10 10:07:17;;;;;;;14.63;2.40;;;14.50;99.90;;;;;;5030782;28;20032;-77
2022/11/10 10:10:19;;;;;;;13.82;1.95;;;14.60;99.90;;;;;;5031056;28;20063;-72
2022/11/10 10:12:50;;;;;;;14.73;2.27;;;14.60;99.90;;;;;;5023778;28;20033;-76
2022/11/10 10:15:43;;;;;;;11.15;1.88;;;14.90;99.90;;;;;;5028678;28;20124;-73
2022/11/10 10:18:18;;;;;;;18.42;2.65;;;14.90;99.90;;;;;;5029935;28;20025;-72
2022/11/10 10:20:53;;;;;;;16.38;2.78;;;15.00;99.90;;;;;;5045812;28;20436;-74
2022/11/10 10:23:48;;;;;;;12.27;2.78;;;14.90;99.90;;;;;;5021272;28;20025;-75
2022/11/10 10:26:19;;;;;;;17.15;2.80;;;15.30;99.90;;;;;;5019999;28;20030;-73
2022/11/10 10:28:47;;;;;;;18.98;2.22;;;15.50;99.90;;;;;;5029069;28;20040;-72
2022/11/10 10:31:19;;;;;;;17.73;2.50;;;15.90;99.90;;;;;;5025116;28;20036;-77
2022/11/10 10:33:48;;;;;;;16.20;2.58;;;16.20;99.90;;;;;;5028595;28;20014;-73
2022/11/10 10:36:26;;;;;;;16.65;2.28;;;16.40;99.90;;;;;;5030636;28;20052;-73
2022/11/10 10:39:11;;;;;;;16.35;3.85;;;16.50;99.90;;;;;;5030118;28;20485;-78
2022/11/10 10:41:37;;;;;;;14.60;2.65;;;17.00;99.90;;;;;;5029879;28;20482;-78
2022/11/10 10:44:13;;;;;;;13.98;2.83;;;17.00;99.90;;;;;;5029739;28;20083;-76
2022/11/10 10:46:47;;;;;;;21.88;2.88;;;16.90;99.90;;;;;;5023802;28;20033;-73
2022/11/10 10:49:18;;;;;;;19.30;2.42;;;17.00;99.90;;;;;;5027778;28;20025;-74
2022/11/10 10:51:44;;;;;;;13.90;3.00;;;17.20;99.90;;;;;;5028937;28;20056;-74
2022/11/10 10:54:23;;;;;;;17.15;2.20;;;17.40;99.90;;;;;;5027707;28;20156;-72
2022/11/10 10:56:49;;;;;;;18.58;2.90;;;17.50;99.90;;;;;;5029552;28;20033;-73
2022/11/10 10:59:21;;;;;;;14.90;2.45;;;18.00;99.90;;;;;;5030191;28;20029;-72
2022/11/10 11:01:53;;;;;;;16.63;2.45;;;17.50;99.90;;;;;;5029474;28;20303;-78
2022/11/10 11:04:29;;;;;;;12.73;2.25;;;17.60;99.90;;;;;;5028498;28;20095;-73
2022/11/10 11:07:04;;;;;;;18.00;2.75;;;17.50;99.90;;;;;;5027096;28;20037;-76
2022/11/10 11:09:41;;;;;;;17.40;2.38;;;17.30;99.90;;;;;;5030302;28;20400;-72
2022/11/10 11:12:24;;;;;;;14.70;1.77;;;17.40;99.90;;;;;;5029008;28;20033;-74
2022/11/10 11:14:50;;;;;;;17.33;2.17;;;17.00;99.90;;;;;;5029612;28;20033;-78
2022/11/10 11:17:20;;;;;;;18.13;3.08;;;17.10;99.90;;;;;;5029472;28;20184;-77
2022/11/10 11:19:50;;;;;;;18.10;2.30;;;17.30;99.90;;;;;;5044224;28;20053;-77
2022/11/10 11:22:55;;;;;;;10.43;1.98;;;17.30;99.90;;;;;;5024989;28;20433;-72
2022/11/10 11:25:44;;;;;;;18.33;2.80;;;17.40;99.90;;;;;;5019499;28;20037;-76
2022/11/10 11:28:13;;;;;;;21.75;2.30;;;17.60;99.90;;;;;;5024952;28;20470;-76
2022/11/10 11:30:47;;;;;;;13.95;2.08;;;17.70;99.90;;;;;;5025319;28;20025;-73
2022/11/10 11:33:16;;;;;;;14.05;2.08;;;17.70;99.90;;;;;;5029304;28;20026;-73
2022/11/10 11:35:56;;;;;;;14.90;2.03;;;17.80;99.90;;;;;;5029304;28;20487;-75
2022/11/10 11:38:31;;;;;;;162.50;60.42;;;17.70;99.90;;;;;;5009569;28;20486;-73
2022/11/10 11:41:02;;;;;;;13.55;2.65;;;18.00;99.90;;;;;;5028502;28;20031;-74
2022/11/10 11:44:03;;;;;;;12.98;2.53;;;18.20;99.90;;;;;;5026984;28;20040;-72
2022/11/10 11:46:43;;;;;;;13.85;1.85;;;18.10;99.90;;;;;;5013267;28;20037;-74
2022/11/10 11:49:33;;;;;;;15.77;2.00;;;18.10;99.90;;;;;;5028768;28;20095;-73
2022/11/10 11:52:37;;;;;;;13.93;2.05;;;18.30;99.90;;;;;;5020730;28;20037;-80
2022/11/10 11:55:21;;;;;;;16.70;2.20;;;18.30;99.90;;;;;;5027586;28;20032;-77
2022/11/10 11:57:50;;;;;;;12.23;2.20;;;18.60;99.90;;;;;;5029584;28;20033;-73
2022/11/10 12:00:17;;;;;;;13.65;1.77;;;18.10;99.90;;;;;;5029305;28;20113;-77
2022/11/10 12:03:16;;;;;;;11.52;2.00;;;18.40;99.90;;;;;;5031519;28;20033;-77
2022/11/10 12:05:55;;;;;;;13.80;2.22;;;18.40;99.90;;;;;;5032967;28;20044;-76
2022/11/10 12:08:38;;;;;;;11.90;2.67;;;18.50;99.90;;;;;;5031781;28;20021;-72
2022/11/10 12:11:13;;;;;;;13.70;2.33;;;18.40;99.90;;;;;;5023028;28;20032;-78
2022/11/10 12:13:39;;;;;;;11.98;1.92;;;18.60;99.90;;;;;;5031426;28;20013;-77
2022/11/10 12:16:30;;;;;;;12.70;2.22;;;18.60;99.90;;;;;;5033382;28;20099;-76
2022/11/10 12:19:04;;;;;;;8.82;2.00;;;18.40;99.80;;;;;;5031601;28;20033;-77
2022/11/10 12:22:17;;;;;;;10.75;1.88;;;18.50;99.60;;;;;;5024129;28;20048;-72
2022/11/10 12:25:23;;;;;;;15.13;2.22;;;18.50;99.90;;;;;;5004652;28;20042;-76
2022/11/10 12:27:56;;;;;;;14.88;2.53;;;18.80;99.40;;;;;;5032255;28;20040;-73
2022/11/10 12:30:22;;;;;;;8.63;1.83;;;19.00;98.70;;;;;;5025908;28;20031;-72
2022/11/10 12:33:00;;;;;;;8.38;2.30;;;19.10;98.40;;;;;;5031560;28;20030;-71
2022/11/10 12:35:39;;;;;;;16.95;2.47;;;18.90;98.20;;;;;;5021309;28;20450;-73
2022/11/10 12:38:20;;;;;;;18.52;2.28;;;19.10;98.50;;;;;;5020650;28;20036;-72
2022/11/10 12:40:50;;;;;;;13.32;1.88;;;19.00;97.60;;;;;;5032643;28;20501;-75
2022/11/10 12:43:38;;;;;;;14.98;2.40;;;18.90;98.00;;;;;;5032782;28;20124;-76
2022/11/10 12:46:07;;;;;;;11.95;1.55;;;19.10;97.80;;;;;;5029785;28;20025;-72
2022/11/10 12:48:49;;;;;;;13.57;2.15;;;19.20;97.30;;;;;;5031122;28;20108;-75
2022/11/10 12:51:31;;;;;;;10.30;2.17;;;19.60;96.80;;;;;;5032368;28;20160;-72
2022/11/10 12:53:57;;;;;;;15.02;3.03;;;19.90;95.80;;;;;;5024316;28;20013;-72
2022/11/10 12:56:26;;;;;;;6.18;1.88;;;20.10;95.00;;;;;;5031167;28;20037;-72
2022/11/10 12:59:20;;;;;;;10.40;1.27;;;20.40;93.80;;;;;;5048773;28;20399;-76
2022/11/10 13:01:48;;;;;;;12.85;2.15;;;20.70;92.10;;;;;;5026476;28;20033;-75
2022/11/10 13:04:15;;;;;;;9.85;1.55;;;20.70;91.10;;;;;;5034224;28;20033;-72
2022/11/10 13:06:56;;;;;;;9.15;1.70;;;20.70;90.40;;;;;;5043789;28;20025;-74
2022/11/10 13:09:25;;;;;;;6.15;1.70;;;22.30;88.30;;;;;;5035493;28;20028;-74